createdAt,value
2023-04-05T00:02:44.060Z,63.70
2023-04-05T00:06:46.832Z,64.24
2023-04-05T00:10:49.735Z,65.10
2023-04-05T00:14:52.447Z,64.79
2023-04-05T00:18:58.362Z,66.00
2023-04-05T00:23:01.129Z,66.09
2023-04-05T00:27:03.947Z,67.15
2023-04-05T00:31:07.076Z,67.05
2023-04-05T00:35:11.471Z,68.07
2023-04-05T00:39:14.510Z,68.65
2023-04-05T00:43:17.219Z,69.26
2023-04-05T00:47:20.012Z,69.97
2023-04-05T00:51:26.607Z,70.03
2023-04-05T00:55:29.882Z,70.44
2023-04-05T00:59:32.671Z,70.90
2023-04-05T01:03:37.094Z,71.33
2023-04-05T01:07:47.542Z,71.38
2023-04-05T01:11:52.230Z,71.60
2023-04-05T01:15:55.106Z,72.26
2023-04-05T01:20:00.137Z,72.75
2023-04-05T01:24:21.109Z,73.21
2023-04-05T01:28:41.816Z,73.60
2023-04-05T01:32:56.314Z,74.57
2023-04-05T01:37:04.731Z,74.83
2023-04-05T01:41:07.752Z,74.73
2023-04-05T01:45:11.080Z,75.43
2023-04-05T01:49:15.624Z,75.60
2023-04-05T01:53:18.705Z,75.72
2023-04-05T01:57:21.515Z,75.95
2023-04-05T02:01:24.734Z,75.99
2023-04-05T02:05:29.117Z,76.63
2023-04-05T02:09:31.825Z,76.62
2023-04-05T02:13:34.601Z,77.03
2023-04-05T02:17:40.277Z,77.40
2023-04-05T02:21:46.158Z,77.38
2023-04-05T02:25:48.961Z,77.90
2023-04-05T02:29:55.775Z,78.70
2023-04-05T02:34:00.993Z,78.66
2023-04-05T02:38:05.624Z,79.13
2023-04-05T02:42:10.124Z,79.33
2023-04-05T02:46:12.997Z,79.76
2023-04-05T02:50:20.500Z,80.00
2023-04-05T02:54:25.083Z,80.70
2023-04-05T02:58:33.998Z,80.74
2023-04-05T03:02:39.828Z,81.38
2023-04-05T03:06:51.007Z,81.77
2023-04-05T03:10:57.369Z,81.87
2023-04-05T03:15:00.247Z,82.00
2023-04-05T03:19:10.185Z,82.26
2023-04-05T03:23:17.287Z,82.62
2023-04-05T03:27:23.029Z,83.25
2023-04-05T03:31:52.963Z,83.48
2023-04-05T03:35:58.890Z,83.84
2023-04-05T03:40:05.212Z,83.55
2023-04-05T03:44:10.013Z,83.41
2023-04-05T03:48:12.941Z,83.44
2023-04-05T03:52:15.855Z,83.38
2023-04-05T03:56:21.368Z,83.86
2023-04-05T04:00:27.401Z,83.98
2023-04-05T04:04:56.388Z,84.80
2023-04-05T04:08:59.166Z,84.96
2023-04-05T04:13:02.071Z,85.17
2023-04-05T04:17:09.836Z,85.04
2023-04-05T04:21:32.530Z,84.81
2023-04-05T04:25:54.945Z,85.27
2023-04-05T04:30:25.602Z,85.34
2023-04-05T04:34:46.637Z,85.85
2023-04-05T04:39:07.970Z,86.04
2023-04-05T04:43:27.583Z,86.43
2023-04-05T04:47:54.822Z,86.28
2023-04-05T04:52:10.533Z,87.09
2023-04-05T04:56:15.301Z,87.28
2023-04-05T05:00:18.898Z,87.27
2023-04-05T05:04:22.933Z,87.55
2023-04-05T05:08:27.265Z,87.61
2023-04-05T05:12:31.347Z,88.16
2023-04-05T05:16:34.526Z,88.26
2023-04-05T05:20:37.468Z,88.48
2023-04-05T05:24:42.566Z,89.07
2023-04-05T05:28:45.978Z,89.11
2023-04-05T05:32:48.861Z,89.60
2023-04-05T05:36:53.542Z,89.96
2023-04-05T05:40:58.697Z,89.95
2023-04-05T05:45:04.421Z,90.52
2023-04-05T05:49:07.244Z,90.46
2023-04-05T05:53:10.010Z,90.59
2023-04-05T05:57:14.260Z,90.79
2023-04-05T06:01:17.070Z,91.41
2023-04-05T06:05:19.870Z,91.35
2023-04-05T06:09:23.211Z,91.89
2023-04-05T06:13:27.483Z,91.63
2023-04-05T06:17:30.375Z,91.98
2023-04-05T06:21:33.191Z,91.98
2023-04-05T06:25:36.357Z,91.94
2023-04-05T06:29:40.491Z,92.05
2023-04-05T06:33:43.461Z,92.03
2023-04-05T06:37:46.210Z,92.30
2023-04-05T06:41:49.065Z,91.51
2023-04-05T06:45:53.221Z,91.89
2023-04-05T06:49:56.116Z,91.07
2023-04-05T06:53:59.077Z,90.28
2023-04-05T06:58:01.830Z,89.48
2023-04-05T07:02:06.030Z,88.15
2023-04-05T07:06:09.751Z,87.12
2023-04-05T07:10:12.794Z,86.02
2023-04-05T07:14:15.995Z,85.60
2023-04-05T07:18:20.480Z,84.44
2023-04-05T07:22:23.228Z,83.06
2023-04-05T07:26:26.993Z,77.80
2023-04-05T07:30:30.121Z,74.41
2023-04-05T07:34:34.314Z,69.68
2023-04-05T07:38:37.143Z,67.67
2023-04-05T07:42:40.860Z,64.52
2023-04-05T07:46:46.897Z,61.32
2023-04-05T07:50:53.013Z,58.89
2023-04-05T07:54:56.198Z,55.87
2023-04-05T07:58:59.730Z,53.89
2023-04-05T08:03:02.947Z,52.60
2023-04-05T08:07:07.119Z,51.12
2023-04-05T08:11:09.977Z,50.77
2023-04-05T08:15:12.660Z,48.21
2023-04-05T08:19:21.664Z,47.44
2023-04-05T08:23:27.084Z,45.24
2023-04-05T08:27:29.844Z,44.71
2023-04-05T08:31:33.914Z,42.73
2023-04-05T08:35:38.250Z,42.27
2023-04-05T08:39:42.452Z,40.93
2023-04-05T08:43:54.611Z,40.53
2023-04-05T08:47:57.542Z,40.82
2023-04-05T08:52:02.055Z,40.02
2023-04-05T08:56:07.991Z,39.72
2023-04-05T09:00:12.232Z,38.49
2023-04-05T09:04:18.308Z,37.85
2023-04-05T09:08:22.333Z,36.93
2023-04-05T09:12:28.088Z,35.63
2023-04-05T09:16:31.217Z,36.60
2023-04-05T09:20:34.333Z,35.74
2023-04-05T09:24:40.854Z,35.88
2023-04-05T09:28:45.005Z,35.47
2023-04-05T09:32:48.499Z,34.94
2023-04-05T09:36:51.311Z,33.69
2023-04-05T09:40:54.031Z,34.15
2023-04-05T09:45:08.593Z,33.60
2023-04-05T09:49:33.798Z,33.40
2023-04-05T09:53:36.523Z,32.65
2023-04-05T09:57:40.432Z,32.67
2023-04-05T10:01:45.794Z,32.66
2023-04-05T10:05:56.066Z,32.32
2023-04-05T10:09:59.077Z,32.05
2023-04-05T10:14:03.866Z,32.29
2023-04-05T10:18:14.542Z,31.44
2023-04-05T10:22:24.836Z,31.25
2023-04-05T10:26:37.521Z,31.81
2023-04-05T10:30:44.159Z,31.44
2023-04-05T10:34:58.041Z,31.14
2023-04-05T10:39:04.419Z,31.28
2023-04-05T10:43:16.543Z,31.77
2023-04-05T10:47:20.862Z,30.56
2023-04-05T10:51:27.659Z,29.58
2023-04-05T10:55:31.458Z,29.56
2023-04-05T10:59:35.458Z,29.62
2023-04-05T11:03:48.921Z,28.68
2023-04-05T11:07:56.402Z,28.73
2023-04-05T11:11:59.280Z,28.18
2023-04-05T11:16:11.377Z,28.90
2023-04-05T11:20:14.200Z,28.85
2023-04-05T11:24:19.588Z,29.54
2023-04-05T11:28:25.092Z,28.97
2023-04-05T11:32:40.156Z,29.18
2023-04-05T11:36:46.045Z,28.93
2023-04-05T11:40:50.404Z,29.51
2023-04-05T11:44:54.572Z,29.04
2023-04-05T11:48:58.105Z,30.09
2023-04-05T11:53:12.285Z,29.82
2023-04-05T11:57:20.089Z,29.91
2023-04-05T12:01:22.820Z,29.69
2023-04-05T12:05:25.627Z,29.75
2023-04-05T12:09:28.428Z,29.58
2023-04-05T12:13:35.344Z,29.34
2023-04-05T12:17:42.421Z,29.74
2023-04-05T12:21:45.792Z,29.10
2023-04-05T12:25:49.541Z,29.12
2023-04-05T12:30:11.792Z,29.15
2023-04-05T12:34:15.894Z,29.02
2023-04-05T12:38:18.818Z,29.46
2023-04-05T12:42:23.372Z,28.58
2023-04-05T12:46:40.517Z,28.78
2023-04-05T12:50:44.861Z,28.82
2023-04-05T12:54:54.886Z,28.37
2023-04-05T12:58:57.719Z,28.50
2023-04-05T13:03:02.046Z,28.70
2023-04-05T13:07:04.890Z,28.55
2023-04-05T13:11:07.724Z,28.52
2023-04-05T13:15:11.160Z,27.94
2023-04-05T13:19:15.413Z,28.31
2023-04-05T13:23:18.177Z,29.35
2023-04-05T13:27:21.681Z,29.93
2023-04-05T13:31:24.581Z,29.58
2023-04-05T13:35:28.794Z,29.13
2023-04-05T13:39:31.552Z,28.72
2023-04-05T13:43:34.270Z,29.19
2023-04-05T13:47:37.243Z,28.59
2023-04-05T13:51:41.871Z,29.00
2023-04-05T13:55:44.710Z,28.82
2023-04-05T13:59:47.615Z,29.02
2023-04-05T14:03:50.765Z,28.46
2023-04-05T14:07:54.987Z,28.94
2023-04-05T14:12:02.669Z,29.34
2023-04-05T14:16:06.093Z,28.63
2023-04-05T14:20:09.545Z,29.06
2023-04-05T14:24:13.880Z,28.94
2023-04-05T14:28:16.670Z,29.59
2023-04-05T14:32:19.571Z,30.19
2023-04-05T14:36:22.524Z,30.42
2023-04-05T14:40:26.821Z,29.83
2023-04-05T14:44:29.679Z,30.20
2023-04-05T14:48:33.977Z,29.60
2023-04-05T14:52:37.357Z,29.64
2023-04-05T14:56:41.541Z,29.85
2023-04-05T15:00:44.575Z,30.07
2023-04-05T15:04:47.340Z,30.39
2023-04-05T15:08:50.113Z,29.83
2023-04-05T15:12:54.351Z,30.37
2023-04-05T15:16:57.307Z,30.84
2023-04-05T15:21:01.062Z,30.86
2023-04-05T15:25:03.970Z,31.44
2023-04-05T15:29:08.207Z,31.10
2023-04-05T15:33:11.113Z,31.47
2023-04-05T15:37:14.046Z,31.74
2023-04-05T15:41:16.860Z,32.24
2023-04-05T15:45:21.128Z,32.32
2023-04-05T15:49:23.949Z,32.52
2023-04-05T15:53:27.863Z,33.09
2023-04-05T15:57:30.738Z,32.72
2023-04-05T16:01:37.945Z,32.08
2023-04-05T16:05:52.815Z,32.06
2023-04-05T16:10:12.682Z,33.08
2023-04-05T16:14:37.218Z,33.63
2023-04-05T16:19:27.256Z,33.58
2023-04-05T16:24:13.882Z,33.52
2023-04-05T16:28:43.887Z,33.62
2023-04-05T16:33:22.126Z,33.87
2023-04-05T16:38:09.021Z,33.51
2023-04-05T16:42:58.345Z,33.92
2023-04-05T16:47:48.658Z,34.04
2023-04-05T16:52:35.782Z,34.53
2023-04-05T16:57:17.488Z,34.86
2023-04-05T17:01:47.031Z,34.85
2023-04-05T17:05:56.596Z,35.24
2023-04-05T17:10:00.701Z,35.57
2023-04-05T17:14:05.557Z,35.74
2023-04-05T17:18:09.991Z,35.76
2023-04-05T17:22:17.661Z,36.13
2023-04-05T17:26:23.118Z,36.13
2023-04-05T17:30:27.716Z,36.65
2023-04-05T17:34:34.610Z,36.48
2023-04-05T17:38:37.603Z,36.03
2023-04-05T17:42:40.693Z,36.84
2023-04-05T17:46:51.163Z,37.15
2023-04-05T17:50:59.121Z,37.73
2023-04-05T17:55:02.674Z,38.21
2023-04-05T17:59:06.660Z,38.09
2023-04-05T18:03:10.094Z,38.15
2023-04-05T18:07:14.618Z,38.83
2023-04-05T18:11:17.626Z,38.95
2023-04-05T18:15:20.728Z,39.33
2023-04-05T18:19:23.642Z,39.64
2023-04-05T18:23:28.446Z,39.87
2023-04-05T18:27:32.505Z,40.04
2023-04-05T18:31:36.935Z,40.41
2023-04-05T18:35:49.706Z,40.57
2023-04-05T18:39:53.997Z,41.40
2023-04-05T18:43:59.242Z,41.45
2023-04-05T18:48:03.320Z,42.95
2023-04-05T18:52:06.244Z,43.05
2023-04-05T18:56:10.967Z,44.34
2023-04-05T19:00:16.865Z,44.64
2023-04-05T19:04:20.072Z,45.20
2023-04-05T19:08:23.193Z,44.83
2023-04-05T19:12:27.674Z,45.91
2023-04-05T19:16:31.028Z,46.59
2023-04-05T19:20:34.319Z,47.18
2023-04-05T19:24:40.758Z,47.15
2023-04-05T19:28:47.183Z,47.95
2023-04-05T19:32:54.495Z,48.83
2023-04-05T19:36:59.837Z,48.82
2023-04-05T19:41:02.785Z,49.50
2023-04-05T19:45:10.794Z,50.02
2023-04-05T19:49:39.009Z,50.32
2023-04-05T19:53:51.625Z,50.99
2023-04-05T19:57:54.940Z,51.60
2023-04-05T20:02:00.401Z,52.82
2023-04-05T20:06:07.076Z,53.34
2023-04-05T20:10:16.426Z,53.80
2023-04-05T20:14:28.033Z,54.27
2023-04-05T20:18:32.559Z,54.68
2023-04-05T20:22:35.908Z,55.09
2023-04-05T20:26:39.490Z,55.71
2023-04-05T20:30:42.981Z,55.85
2023-04-05T20:34:49.253Z,56.47
2023-04-05T20:38:52.338Z,57.04
2023-04-05T20:42:56.452Z,58.03
2023-04-05T20:47:00.541Z,58.84
2023-04-05T20:51:07.643Z,59.72
2023-04-05T20:55:11.079Z,59.60
2023-04-05T20:59:14.657Z,59.46
2023-04-05T21:03:17.933Z,59.73
2023-04-05T21:07:22.312Z,59.57
2023-04-05T21:11:27.094Z,58.95
2023-04-05T21:15:32.125Z,58.90
2023-04-05T21:19:36.141Z,59.11
2023-04-05T21:23:49.116Z,59.41
2023-04-05T21:27:53.101Z,60.45
2023-04-05T21:31:56.279Z,60.82
2023-04-05T21:35:59.527Z,61.72
2023-04-05T21:40:04.530Z,62.45
2023-04-05T21:44:07.605Z,62.67
2023-04-05T21:48:10.607Z,62.88
2023-04-05T21:52:13.691Z,63.18
2023-04-05T21:56:19.009Z,63.82
2023-04-05T22:00:22.418Z,64.59
2023-04-05T22:04:26.518Z,64.25
2023-04-05T22:08:29.756Z,64.14
2023-04-05T22:12:35.597Z,64.67
2023-04-05T22:16:38.713Z,65.26
2023-04-05T22:20:42.577Z,65.63
2023-04-05T22:24:46.256Z,66.01
2023-04-05T22:28:51.030Z,66.58
2023-04-05T22:32:54.976Z,66.64
2023-04-05T22:36:57.855Z,67.35
2023-04-05T22:41:06.505Z,67.08
2023-04-05T22:45:16.679Z,68.04
2023-04-05T22:49:28.092Z,68.09
2023-04-05T22:53:44.765Z,69.57
2023-04-05T22:58:02.830Z,69.54
2023-04-05T23:03:01.676Z,68.99
2023-04-05T23:23:49.971Z,73.69
2023-04-05T23:28:30.560Z,74.11
2023-04-05T23:49:15.943Z,75.71
2023-04-05T23:53:56.355Z,75.90
2023-04-05T23:58:31.853Z,75.97
